Time;durP1;ratioP1;P1;durP2;ratioP2;P2;SDS_P1;SDS_P2;PMS_P1;PMS_P2;Temp;Humidity;BMP_temperature;BMP_pressure;BME280_temperature;BME280_humidity;BME280_pressure;Samples;Min_cycle;Max_cycle;Signal;HPM_P1;HPM_P2
2023/09/09 00:01:08;;;;;;;;;;;23.80;59.20;;;;;;1543063;75;1198;-54
2023/09/09 00:03:11;;;;;;;;;;;23.70;59.20;;;;;;1547369;76;720;-54
2023/09/09 00:05:13;;;;;;;;;;;23.70;59.20;;;;;;1542584;75;773;-54
2023/09/09 00:07:15;;;;;;;;;;;23.80;59.20;;;;;;1535358;75;654;-55
2023/09/09 00:09:17;;;;;;;;;;;23.80;59.20;;;;;;1531394;75;748;-53
2023/09/09 00:11:19;;;;;;;;;;;23.80;59.10;;;;;;1548413;75;1480;-54
2023/09/09 00:13:21;;;;;;;;;;;23.80;59.20;;;;;;1548610;75;1943;-55
2023/09/09 00:15:23;;;;;;;;;;;23.80;59.10;;;;;;1542888;75;800;-53
2023/09/09 00:17:25;;;;;;;;;;;23.80;59.10;;;;;;1553157;75;715;-54
2023/09/09 00:19:27;;;;;;;;;;;23.80;59.10;;;;;;1545850;75;722;-55
2023/09/09 00:21:29;;;;;;;;;;;23.80;59.00;;;;;;1538465;75;1174;-54
2023/09/09 00:23:31;;;;;;;;;;;23.80;59.00;;;;;;1550534;75;629;-55
2023/09/09 00:25:33;;;;;;;;;;;23.70;58.90;;;;;;1540302;75;1489;-55
2023/09/09 00:27:35;;;;;;;;;;;23.70;59.00;;;;;;1543263;75;703;-55
2023/09/09 00:29:37;;;;;;;;;;;23.80;59.00;;;;;;1547366;75;1197;-54
2023/09/09 00:31:39;;;;;;;;;;;23.80;58.90;;;;;;1532935;75;621;-54
2023/09/09 00:33:41;;;;;;;;;;;23.70;58.90;;;;;;1542706;75;1924;-54
2023/09/09 00:35:43;;;;;;;;;;;23.70;58.80;;;;;;1541989;75;772;-54
2023/09/09 00:37:45;;;;;;;;;;;23.70;58.90;;;;;;1548816;75;721;-54
2023/09/09 00:39:47;;;;;;;;;;;23.70;58.80;;;;;;1547062;75;1466;-55
2023/09/09 00:41:49;;;;;;;;;;;23.70;58.90;;;;;;1541945;75;769;-54
2023/09/09 00:43:51;;;;;;;;;;;23.70;58.90;;;;;;1546127;75;756;-53
2023/09/09 00:45:52;;;;;;;;;;;23.70;58.90;;;;;;1549338;75;956;-53
2023/09/09 00:47:55;;;;;;;;;;;23.70;58.80;;;;;;1547331;75;640;-54
2023/09/09 00:49:57;;;;;;;;;;;23.70;58.70;;;;;;1542164;75;1164;-55
2023/09/09 00:51:59;;;;;;;;;;;23.70;58.70;;;;;;1545815;75;681;-54
2023/09/09 00:54:01;;;;;;;;;;;23.70;58.60;;;;;;1541367;75;1947;-53
2023/09/09 00:56:04;;;;;;;;;;;23.70;58.60;;;;;;1544375;75;637;-53
2023/09/09 00:58:06;;;;;;;;;;;23.70;58.60;;;;;;1550700;75;667;-55
2023/09/09 01:00:11;;;;;;;;;;;23.70;58.60;;;;;;1548464;75;1181;-54
2023/09/09 01:02:12;;;;;;;;;;;23.70;58.60;;;;;;1541597;75;709;-54
2023/09/09 01:04:14;;;;;;;;;;;23.70;58.60;;;;;;1549970;75;771;-54
2023/09/09 01:06:17;;;;;;;;;;;23.70;58.30;;;;;;1548799;75;703;-54
2023/09/09 01:08:26;;;;;;;;;;;23.60;58.30;;;;;;1549427;75;1445;-53
2023/09/09 01:10:28;;;;;;;;;;;23.60;58.10;;;;;;1543498;75;1171;-52
2023/09/09 01:12:30;;;;;;;;;;;23.70;58.20;;;;;;1549149;75;708;-52
2023/09/09 01:14:31;;;;;;;;;;;23.70;58.00;;;;;;1543181;75;1938;-55
2023/09/09 01:16:33;;;;;;;;;;;23.70;58.20;;;;;;1540265;75;745;-55
2023/09/09 01:18:35;;;;;;;;;;;23.70;57.90;;;;;;1543976;75;703;-54
2023/09/09 01:20:39;;;;;;;;;;;23.60;57.80;;;;;;1543261;75;1394;-55
2023/09/09 01:22:41;;;;;;;;;;;23.70;57.80;;;;;;1543599;75;702;-52
2023/09/09 01:24:45;;;;;;;;;;;23.70;58.00;;;;;;1540469;75;801;-52
2023/09/09 01:26:46;;;;;;;;;;;23.70;57.80;;;;;;1541689;75;792;-55
2023/09/09 01:28:48;;;;;;;;;;;23.70;58.00;;;;;;1542163;75;726;-55
2023/09/09 01:30:50;;;;;;;;;;;23.60;57.70;;;;;;1549204;75;1152;-53
2023/09/09 01:32:52;;;;;;;;;;;23.60;57.60;;;;;;1540972;75;769;-54
2023/09/09 01:34:55;;;;;;;;;;;23.70;57.70;;;;;;1549992;75;1941;-52
2023/09/09 01:36:57;;;;;;;;;;;23.60;57.50;;;;;;1551377;75;685;-55
2023/09/09 01:38:59;;;;;;;;;;;23.70;57.70;;;;;;1544399;75;656;-54
2023/09/09 01:41:01;;;;;;;;;;;23.70;57.80;;;;;;1547099;75;1468;-54
2023/09/09 01:43:03;;;;;;;;;;;23.70;57.80;;;;;;1549155;75;776;-54
2023/09/09 01:45:05;;;;;;;;;;;23.60;57.40;;;;;;1547014;75;747;-54
2023/09/09 01:47:06;;;;;;;;;;;23.60;57.60;;;;;;1539167;75;697;-53
2023/09/09 01:49:08;;;;;;;;;;;23.60;57.40;;;;;;1546918;75;1460;-52
2023/09/09 01:51:10;;;;;;;;;;;23.70;57.40;;;;;;1539654;75;1161;-54
2023/09/09 01:53:12;;;;;;;;;;;23.60;57.50;;;;;;1536936;75;731;-55
2023/09/09 01:55:14;;;;;;;;;;;23.60;57.60;;;;;;1548350;75;1962;-54
2023/09/09 01:57:19;;;;;;;;;;;23.60;57.40;;;;;;1534453;75;724;-55
2023/09/09 01:59:19;;;;;;;;;;;23.70;57.60;;;;;;1548516;76;1642;-52
2023/09/09 02:01:21;;;;;;;;;;;23.60;57.40;;;;;;1548667;75;1267;-54
2023/09/09 02:03:25;;;;;;;;;;;23.60;57.30;;;;;;1535306;75;1476;-52
2023/09/09 02:05:27;;;;;;;;;;;23.60;57.30;;;;;;1538358;75;704;-51
2023/09/09 02:07:29;;;;;;;;;;;23.60;57.30;;;;;;1557586;75;682;-53
2023/09/09 02:09:30;;;;;;;;;;;23.60;57.50;;;;;;1547602;75;704;-54
2023/09/09 02:11:32;;;;;;;;;;;23.60;57.40;;;;;;1550296;75;1043;-53
2023/09/09 02:13:34;;;;;;;;;;;23.60;57.30;;;;;;1548844;75;1948;-52
2023/09/09 02:15:36;;;;;;;;;;;23.60;57.20;;;;;;1552235;75;700;-53
2023/09/09 02:17:38;;;;;;;;;;;23.60;57.30;;;;;;1550934;75;1489;-52
2023/09/09 02:19:40;;;;;;;;;;;23.60;57.30;;;;;;1551451;75;1247;-54
2023/09/09 02:21:42;;;;;;;;;;;23.60;57.10;;;;;;1549442;75;626;-55
2023/09/09 02:23:44;;;;;;;;;;;23.60;57.20;;;;;;1553180;75;764;-53
2023/09/09 02:25:45;;;;;;;;;;;23.60;57.10;;;;;;1556952;75;773;-53
2023/09/09 02:27:47;;;;;;;;;;;23.60;57.10;;;;;;1547162;75;711;-54
2023/09/09 02:29:49;;;;;;;;;;;23.60;57.20;;;;;;1542759;75;1136;-53
2023/09/09 02:31:51;;;;;;;;;;;23.70;57.30;;;;;;1548058;75;1463;-53
2023/09/09 02:33:53;;;;;;;;;;;23.70;57.30;;;;;;1552136;75;1933;-52
2023/09/09 02:35:55;;;;;;;;;;;23.60;57.30;;;;;;1544565;75;772;-53
2023/09/09 02:37:57;;;;;;;;;;;23.60;57.30;;;;;;1549884;75;731;-54
2023/09/09 02:39:59;;;;;;;;;;;23.60;57.10;;;;;;1544667;75;1252;-53
2023/09/09 02:42:00;;;;;;;;;;;23.60;57.20;;;;;;1549308;75;691;-53
2023/09/09 02:44:02;;;;;;;;;;;23.60;57.20;;;;;;1553857;75;752;-52
2023/09/09 02:46:04;;;;;;;;;;;23.60;57.30;;;;;;1546321;75;1450;-55
2023/09/09 02:48:06;;;;;;;;;;;23.60;57.10;;;;;;1549278;75;771;-54
2023/09/09 02:50:08;;;;;;;;;;;23.60;57.10;;;;;;1548994;75;1148;-53
2023/09/09 02:52:10;;;;;;;;;;;23.60;57.10;;;;;;1545010;75;679;-54
2023/09/09 02:54:12;;;;;;;;;;;23.60;57.20;;;;;;1549398;75;1943;-52
2023/09/09 02:56:14;;;;;;;;;;;23.60;57.20;;;;;;1545289;75;616;-53
2023/09/09 02:58:16;;;;;;;;;;;23.60;57.10;;;;;;1549481;75;753;-53
2023/09/09 03:00:18;;;;;;;;;;;23.50;57.00;;;;;;1552952;75;1496;-52
2023/09/09 03:02:20;;;;;;;;;;;23.60;57.00;;;;;;1548262;75;740;-54
2023/09/09 03:04:21;;;;;;;;;;;23.60;57.10;;;;;;1542961;75;629;-54
2023/09/09 03:06:23;;;;;;;;;;;23.60;57.00;;;;;;1553093;75;619;-55
2023/09/09 03:08:25;;;;;;;;;;;23.60;56.90;;;;;;1547244;75;766;-54
2023/09/09 03:10:27;;;;;;;;;;;23.60;57.00;;;;;;1550911;75;1130;-54
2023/09/09 03:12:29;;;;;;;;;;;23.60;57.20;;;;;;1549140;76;673;-54
2023/09/09 03:14:31;;;;;;;;;;;23.60;57.00;;;;;;1546930;75;1943;-54
2023/09/09 03:16:33;;;;;;;;;;;23.60;57.10;;;;;;1549432;75;766;-54
2023/09/09 03:18:34;;;;;;;;;;;23.60;57.10;;;;;;1547596;75;702;-55
2023/09/09 03:20:36;;;;;;;;;;;23.60;57.10;;;;;;1549140;76;1251;-55
2023/09/09 03:22:38;;;;;;;;;;;23.60;57.00;;;;;;1548194;75;739;-54
2023/09/09 03:24:40;;;;;;;;;;;23.60;57.00;;;;;;1551342;75;711;-53
2023/09/09 03:26:42;;;;;;;;;;;23.60;57.00;;;;;;1542758;75;752;-55
2023/09/09 03:28:44;;;;;;;;;;;23.60;57.00;;;;;;1545061;75;1351;-54
2023/09/09 03:30:53;;;;;;;;;;;23.60;57.00;;;;;;1549080;75;1144;-52
2023/09/09 03:32:56;;;;;;;;;;;23.60;56.80;;;;;;1544991;75;759;-55
2023/09/09 03:34:58;;;;;;;;;;;23.60;56.80;;;;;;1542197;75;1941;-53
2023/09/09 03:36:59;;;;;;;;;;;23.60;57.00;;;;;;1548798;75;725;-53
2023/09/09 03:39:03;;;;;;;;;;;23.60;57.00;;;;;;1548650;75;725;-54
2023/09/09 03:41:05;;;;;;;;;;;23.50;56.70;;;;;;1542961;75;1174;-53
2023/09/09 03:43:07;;;;;;;;;;;23.60;57.10;;;;;;1543760;75;941;-52
2023/09/09 03:45:10;;;;;;;;;;;23.60;56.90;;;;;;1548170;75;718;-53
2023/09/09 03:47:12;;;;;;;;;;;23.60;56.80;;;;;;1549266;75;700;-53
2023/09/09 03:49:14;;;;;;;;;;;23.60;56.80;;;;;;1547978;75;745;-53
2023/09/09 03:51:17;;;;;;;;;;;23.60;56.80;;;;;;1544916;75;1180;-53
2023/09/09 03:53:18;;;;;;;;;;;23.60;56.70;;;;;;1547265;75;705;-55
2023/09/09 03:55:20;;;;;;;;;;;23.50;56.70;;;;;;1536851;75;1945;-54
2023/09/09 03:57:22;;;;;;;;;;;23.60;57.00;;;;;;1547550;75;734;-52
2023/09/09 03:59:29;;;;;;;;;;;23.60;56.70;;;;;;1547359;75;746;-52
2023/09/09 04:01:28;;;;;;;;;;;23.50;56.60;;;;;;1545581;75;1513;-54
2023/09/09 04:03:33;;;;;;;;;;;23.60;56.80;;;;;;1549334;75;651;-52
2023/09/09 04:05:34;;;;;;;;;;;23.50;56.80;;;;;;1542322;75;1567;-53
2023/09/09 04:07:36;;;;;;;;;;;23.60;56.90;;;;;;1543066;75;698;-53
2023/09/09 04:09:40;;;;;;;;;;;23.60;56.60;;;;;;1548510;75;1425;-54
2023/09/09 04:11:41;;;;;;;;;;;23.50;56.80;;;;;;1550783;75;1603;-53
2023/09/09 04:13:43;;;;;;;;;;;23.50;56.70;;;;;;1551520;75;730;-52
2023/09/09 04:15:45;;;;;;;;;;;23.50;56.80;;;;;;1548445;75;1950;-52
2023/09/09 04:17:47;;;;;;;;;;;23.60;56.90;;;;;;1537027;75;758;-54
2023/09/09 04:19:49;;;;;;;;;;;23.60;56.90;;;;;;1538546;75;1174;-54
2023/09/09 04:21:51;;;;;;;;;;;23.50;57.00;;;;;;1549386;75;696;-53
2023/09/09 04:23:53;;;;;;;;;;;23.60;57.00;;;;;;1547118;75;1448;-54
2023/09/09 04:25:55;;;;;;;;;;;23.50;57.00;;;;;;1545378;75;777;-53
2023/09/09 04:27:57;;;;;;;;;;;23.60;56.90;;;;;;1550557;75;680;-54
2023/09/09 04:29:58;;;;;;;;;;;23.50;56.90;;;;;;1548302;75;1220;-53
2023/09/09 04:32:00;;;;;;;;;;;23.50;56.90;;;;;;1545360;75;727;-52
2023/09/09 04:34:02;;;;;;;;;;;23.60;56.90;;;;;;1548716;75;688;-53
2023/09/09 04:36:04;;;;;;;;;;;23.60;57.10;;;;;;1547952;75;1956;-53
2023/09/09 04:38:06;;;;;;;;;;;23.50;57.00;;;;;;1539610;75;1425;-52
2023/09/09 04:40:10;;;;;;;;;;;23.50;56.90;;;;;;1546675;75;1174;-54
2023/09/09 04:42:12;;;;;;;;;;;23.50;56.90;;;;;;1542532;75;709;-52
2023/09/09 04:44:14;;;;;;;;;;;23.50;57.10;;;;;;1548663;75;690;-52
2023/09/09 04:46:16;;;;;;;;;;;23.50;56.90;;;;;;1540584;75;786;-53
2023/09/09 04:48:18;;;;;;;;;;;23.60;56.80;;;;;;1543488;75;681;-52
2023/09/09 04:50:20;;;;;;;;;;;23.50;56.80;;;;;;1546893;75;1172;-52
2023/09/09 04:52:22;;;;;;;;;;;23.50;56.90;;;;;;1548973;75;1434;-53
2023/09/09 04:54:23;;;;;;;;;;;23.50;57.10;;;;;;1549580;75;625;-54
2023/09/09 04:56:25;;;;;;;;;;;23.60;57.10;;;;;;1539005;75;1955;-53
2023/09/09 04:58:27;;;;;;;;;;;23.50;57.00;;;;;;1552093;75;774;-52
2023/09/09 05:00:29;;;;;;;;;;;23.50;56.90;;;;;;1547259;75;1170;-52
2023/09/09 05:02:31;;;;;;;;;;;23.50;56.80;;;;;;1545619;75;714;-52
2023/09/09 05:04:33;;;;;;;;;;;23.50;56.80;;;;;;1545809;76;750;-52
2023/09/09 05:06:35;;;;;;;;;;;23.50;56.80;;;;;;1548683;75;1420;-53
2023/09/09 05:08:37;;;;;;;;;;;23.50;56.80;;;;;;1545701;75;804;-53
2023/09/09 05:10:39;;;;;;;;;;;23.60;56.80;;;;;;1548805;75;1184;-53
2023/09/09 05:12:40;;;;;;;;;;;23.60;56.90;;;;;;1544326;75;694;-52
2023/09/09 05:14:42;;;;;;;;;;;23.50;56.80;;;;;;1542503;75;1963;-53
2023/09/09 05:16:44;;;;;;;;;;;23.60;56.80;;;;;;1539363;75;713;-52
2023/09/09 05:18:46;;;;;;;;;;;23.50;56.80;;;;;;1548074;75;754;-53
2023/09/09 05:20:48;;;;;;;;;;;23.60;56.70;;;;;;1546583;75;1426;-53
2023/09/09 05:22:50;;;;;;;;;;;23.60;56.70;;;;;;1547069;75;663;-52
2023/09/09 05:24:52;;;;;;;;;;;23.60;56.50;;;;;;1541177;75;760;-52
2023/09/09 05:26:54;;;;;;;;;;;23.60;56.80;;;;;;1544097;75;699;-52
2023/09/09 05:28:55;;;;;;;;;;;23.60;56.90;;;;;;1550856;75;717;-53
2023/09/09 05:30:57;;;;;;;;;;;23.60;56.70;;;;;;1548316;75;1229;-52
2023/09/09 05:32:59;;;;;;;;;;;23.60;56.50;;;;;;1544192;75;678;-53
2023/09/09 05:35:01;;;;;;;;;;;23.60;56.40;;;;;;1548022;75;1944;-53
2023/09/09 05:37:03;;;;;;;;;;;23.70;56.50;;;;;;1547172;75;716;-53
2023/09/09 05:39:05;;;;;;;;;;;23.70;56.40;;;;;;1544708;75;685;-52
2023/09/09 05:41:07;;;;;;;;;;;23.70;56.50;;;;;;1544524;75;1121;-55
2023/09/09 05:43:09;;;;;;;;;;;23.70;56.50;;;;;;1542366;75;661;-54
2023/09/09 05:45:11;;;;;;;;;;;23.70;56.40;;;;;;1544699;75;1009;-53
2023/09/09 05:47:13;;;;;;;;;;;23.70;56.40;;;;;;1549883;75;633;-53
2023/09/09 05:49:15;;;;;;;;;;;23.70;56.40;;;;;;1548649;75;1441;-53
2023/09/09 05:51:17;;;;;;;;;;;23.80;56.50;;;;;;1545283;75;1164;-55
2023/09/09 05:53:19;;;;;;;;;;;23.70;56.40;;;;;;1547623;75;637;-53
2023/09/09 05:55:21;;;;;;;;;;;23.70;56.40;;;;;;1547736;75;1936;-53
2023/09/09 05:57:23;;;;;;;;;;;23.80;56.40;;;;;;1547132;75;682;-54
2023/09/09 05:59:25;;;;;;;;;;;23.80;56.30;;;;;;1549494;76;628;-53
2023/09/09 06:01:27;;;;;;;;;;;23.80;56.30;;;;;;1549145;75;1161;-52
2023/09/09 06:03:29;;;;;;;;;;;23.90;56.30;;;;;;1547223;75;1474;-52
2023/09/09 06:05:31;;;;;;;;;;;23.90;56.20;;;;;;1549535;75;751;-54
2023/09/09 06:07:33;;;;;;;;;;;23.90;56.10;;;;;;1548689;75;745;-53
2023/09/09 06:09:35;;;;;;;;;;;23.90;56.10;;;;;;1549353;75;1134;-53
2023/09/09 06:11:37;;;;;;;;;;;23.90;56.10;;;;;;1549626;75;788;-54
2023/09/09 06:13:38;;;;;;;;;;;23.90;56.20;;;;;;1549316;75;662;-55
2023/09/09 06:15:40;;;;;;;;;;;23.90;56.30;;;;;;1544925;75;1939;-55
2023/09/09 06:17:42;;;;;;;;;;;23.90;56.50;;;;;;1547790;75;1565;-55
2023/09/09 06:19:44;;;;;;;;;;;23.90;56.50;;;;;;1547770;75;1172;-54
2023/09/09 06:21:46;;;;;;;;;;;23.90;56.50;;;;;;1547967;75;711;-54
2023/09/09 06:23:48;;;;;;;;;;;23.90;56.70;;;;;;1548955;75;740;-54
2023/09/09 06:25:50;;;;;;;;;;;23.90;56.70;;;;;;1545559;75;807;-55
2023/09/09 06:27:52;;;;;;;;;;;23.90;56.70;;;;;;1547599;75;687;-54
2023/09/09 06:29:54;;;;;;;;;;;23.90;56.80;;;;;;1543708;75;1496;-53
2023/09/09 06:31:57;;;;;;;;;;;23.90;56.80;;;;;;1548133;75;725;-52
2023/09/09 06:33:59;;;;;;;;;;;23.90;56.90;;;;;;1544629;75;743;-53
2023/09/09 06:36:01;;;;;;;;;;;23.90;57.00;;;;;;1546758;75;1947;-52
2023/09/09 06:38:03;;;;;;;;;;;23.90;57.10;;;;;;1547954;75;726;-54
2023/09/09 06:40:05;;;;;;;;;;;23.90;57.20;;;;;;1545380;75;1193;-55
2023/09/09 06:42:07;;;;;;;;;;;24.00;56.80;;;;;;1546448;75;749;-54
2023/09/09 06:44:09;;;;;;;;;;;23.70;56.90;;;;;;1546233;75;1422;-54
2023/09/09 06:46:10;;;;;;;;;;;24.00;56.80;;;;;;1545202;75;687;-54
2023/09/09 06:48:17;;;;;;;;;;;24.00;56.60;;;;;;1547339;75;694;-53
2023/09/09 06:50:16;;;;;;;;;;;24.00;56.50;;;;;;1547801;75;1605;-51
2023/09/09 06:52:18;;;;;;;;;;;24.20;56.10;;;;;;1548771;75;729;-53
2023/09/09 06:54:20;;;;;;;;;;;25.20;54.60;;;;;;1549436;75;731;-53
2023/09/09 06:56:22;;;;;;;;;;;26.80;50.50;;;;;;1549686;75;1943;-54
2023/09/09 06:58:24;;;;;;;;;;;28.60;46.10;;;;;;1547650;75;1468;-53
2023/09/09 07:00:26;;;;;;;;;;;29.60;43.10;;;;;;1548813;75;1171;-54
2023/09/09 07:02:28;;;;;;;;;;;29.00;43.20;;;;;;1549312;75;759;-54
2023/09/09 07:04:30;;;;;;;;;;;28.10;44.60;;;;;;1547775;75;742;-54
2023/09/09 07:06:31;;;;;;;;;;;27.20;46.30;;;;;;1548291;75;691;-54
2023/09/09 07:08:39;;;;;;;;;;;26.50;47.40;;;;;;1548079;75;636;-53
2023/09/09 07:10:37;;;;;;;;;;;26.10;48.70;;;;;;1547660;75;1597;-52
2023/09/09 07:12:39;;;;;;;;;;;25.80;49.20;;;;;;1551755;75;1254;-52
2023/09/09 07:14:41;;;;;;;;;;;25.60;50.00;;;;;;1550132;75;700;-54
2023/09/09 07:16:43;;;;;;;;;;;25.50;50.50;;;;;;1546446;75;1931;-53
2023/09/09 07:18:44;;;;;;;;;;;25.40;51.10;;;;;;1549881;75;680;-53
2023/09/09 07:20:46;;;;;;;;;;;25.30;51.30;;;;;;1548448;75;1144;-53
2023/09/09 07:22:48;;;;;;;;;;;25.20;51.60;;;;;;1549592;75;766;-53
2023/09/09 07:24:50;;;;;;;;;;;25.20;51.80;;;;;;1549307;75;770;-53
2023/09/09 07:26:52;;;;;;;;;;;25.10;52.00;;;;;;1543866;75;1422;-53
2023/09/09 07:28:54;;;;;;;;;;;25.10;52.20;;;;;;1548636;75;713;-53
2023/09/09 07:30:56;;;;;;;;;;;25.10;52.30;;;;;;1549685;75;1217;-55
2023/09/09 07:32:58;;;;;;;;;;;25.10;52.40;;;;;;1514739;77;762;-53
2023/09/09 07:35:02;;;;;;;;;;;25.00;52.40;;;;;;1544698;75;840;-53
2023/09/09 07:37:04;;;;;;;;;;;25.10;52.50;;;;;;1547251;75;1939;-54
2023/09/09 07:39:06;;;;;;;;;;;25.10;52.50;;;;;;1546662;75;745;-54
2023/09/09 07:41:08;;;;;;;;;;;25.00;52.60;;;;;;1543185;75;1470;-55
2023/09/09 07:43:09;;;;;;;;;;;25.00;52.70;;;;;;1544195;75;748;-55
2023/09/09 07:45:11;;;;;;;;;;;25.00;52.80;;;;;;1550648;76;633;-54
2023/09/09 07:47:13;;;;;;;;;;;25.00;52.70;;;;;;1541920;75;666;-53
2023/09/09 07:49:15;;;;;;;;;;;25.10;52.80;;;;;;1559205;75;677;-54
2023/09/09 07:51:18;;;;;;;;;;;25.10;52.80;;;;;;1547132;75;1141;-54
2023/09/09 07:53:20;;;;;;;;;;;25.10;52.80;;;;;;1545770;75;727;-54
2023/09/09 07:55:22;;;;;;;;;;;25.10;52.80;;;;;;1547164;75;1452;-54
2023/09/09 07:57:24;;;;;;;;;;;25.10;52.80;;;;;;1541271;75;1942;-55
2023/09/09 07:59:28;;;;;;;;;;;25.10;52.90;;;;;;1549149;75;748;-55
2023/09/09 08:01:29;;;;;;;;;;;25.10;52.90;;;;;;1548613;75;1602;-55
2023/09/09 08:03:31;;;;;;;;;;;25.10;53.00;;;;;;1541569;75;634;-55
2023/09/09 08:05:33;;;;;;;;;;;25.10;53.10;;;;;;1543447;75;812;-53
2023/09/09 08:07:35;;;;;;;;;;;25.10;53.20;;;;;;1544286;75;630;-54
2023/09/09 08:09:37;;;;;;;;;;;25.10;53.10;;;;;;1544407;75;1443;-53
2023/09/09 08:11:39;;;;;;;;;;;25.10;53.60;;;;;;1545391;76;750;-53
2023/09/09 08:13:41;;;;;;;;;;;25.20;53.30;;;;;;1549512;75;660;-55
2023/09/09 08:15:43;;;;;;;;;;;25.20;53.60;;;;;;1545992;75;695;-55
2023/09/09 08:17:44;;;;;;;;;;;25.20;53.50;;;;;;1545965;75;1927;-55
2023/09/09 08:19:46;;;;;;;;;;;25.20;53.60;;;;;;1543765;76;1165;-55
2023/09/09 08:21:48;;;;;;;;;;;25.10;53.60;;;;;;1547433;75;717;-54
2023/09/09 08:23:52;;;;;;;;;;;25.10;53.80;;;;;;1546342;75;1290;-54
2023/09/09 08:25:55;;;;;;;;;;;25.10;54.10;;;;;;1548892;75;741;-54
2023/09/09 08:27:59;;;;;;;;;;;25.10;54.30;;;;;;1545711;75;724;-54
2023/09/09 08:30:01;;;;;;;;;;;25.10;54.00;;;;;;1547514;75;1173;-55
2023/09/09 08:32:03;;;;;;;;;;;25.20;54.50;;;;;;1544448;75;595;-54
2023/09/09 08:34:05;;;;;;;;;;;25.10;54.80;;;;;;1548338;75;735;-54
2023/09/09 08:36:06;;;;;;;;;;;25.20;55.00;;;;;;1537562;75;1943;-52
2023/09/09 08:38:08;;;;;;;;;;;25.10;54.90;;;;;;1544447;75;1416;-53
2023/09/09 08:40:10;;;;;;;;;;;25.20;54.70;;;;;;1548681;75;1253;-54
2023/09/09 08:42:31;;;;;;;;;;;25.10;55.20;;;;;;1546113;75;871;-54
2023/09/09 08:44:35;;;;;;;;;;;25.10;55.00;;;;;;1549456;75;643;-54
2023/09/09 08:46:37;;;;;;;;;;;25.10;55.10;;;;;;1549588;75;1521;-54
2023/09/09 08:48:38;;;;;;;;;;;25.10;55.20;;;;;;1537945;75;751;-53
2023/09/09 08:50:40;;;;;;;;;;;25.20;55.30;;;;;;1543747;75;1499;-55
2023/09/09 08:52:42;;;;;;;;;;;25.20;55.40;;;;;;1544078;75;707;-55
2023/09/09 08:54:44;;;;;;;;;;;25.20;55.50;;;;;;1546573;75;747;-54
2023/09/09 08:56:46;;;;;;;;;;;25.10;55.90;;;;;;1543593;75;1937;-53
2023/09/09 08:58:48;;;;;;;;;;;25.10;55.50;;;;;;1544284;75;774;-55
2023/09/09 09:00:50;;;;;;;;;;;25.10;55.80;;;;;;1544799;75;1122;-55
2023/09/09 09:02:52;;;;;;;;;;;25.10;55.80;;;;;;1547294;75;761;-55
2023/09/09 09:04:54;;;;;;;;;;;25.10;55.90;;;;;;1545216;75;1495;-54
2023/09/09 09:06:55;;;;;;;;;;;25.10;55.90;;;;;;1543938;75;633;-54
2023/09/09 09:08:57;;;;;;;;;;;25.10;55.80;;;;;;1548327;75;728;-54
2023/09/09 09:10:59;;;;;;;;;;;25.10;55.90;;;;;;1548548;75;1164;-55
2023/09/09 09:13:01;;;;;;;;;;;25.10;56.40;;;;;;1547764;75;770;-54
2023/09/09 09:15:03;;;;;;;;;;;25.10;56.10;;;;;;1546295;75;695;-55
2023/09/09 09:17:05;;;;;;;;;;;25.10;56.00;;;;;;1545785;75;1936;-55
2023/09/09 09:19:09;;;;;;;;;;;25.10;56.20;;;;;;1549029;75;1432;-55
2023/09/09 09:21:11;;;;;;;;;;;25.10;56.30;;;;;;1545082;75;1811;-55
2023/09/09 09:23:13;;;;;;;;;;;25.10;56.50;;;;;;1543668;75;749;-55
2023/09/09 09:25:16;;;;;;;;;;;25.10;56.50;;;;;;1540820;75;711;-55
2023/09/09 09:27:18;;;;;;;;;;;25.10;56.50;;;;;;1545311;75;1126;-54
2023/09/09 09:29:20;;;;;;;;;;;25.10;56.90;;;;;;1547971;75;770;-53
2023/09/09 09:31:22;;;;;;;;;;;25.10;56.50;;;;;;1544698;75;1225;-54
2023/09/09 09:33:27;;;;;;;;;;;25.10;56.70;;;;;;1547612;76;1391;-54
2023/09/09 09:35:30;;;;;;;;;;;25.10;56.70;;;;;;1541153;75;707;-52
2023/09/09 09:37:32;;;;;;;;;;;25.10;56.70;;;;;;1549267;75;1921;-55
2023/09/09 09:39:35;;;;;;;;;;;25.10;56.70;;;;;;1547925;75;1558;-54
2023/09/09 09:41:38;;;;;;;;;;;25.10;57.00;;;;;;1549220;75;721;-53
2023/09/09 09:43:40;;;;;;;;;;;25.10;56.80;;;;;;1545340;75;865;-54
2023/09/09 09:45:42;;;;;;;;;;;25.10;57.00;;;;;;1547575;75;710;-55
2023/09/09 09:47:44;;;;;;;;;;;25.10;56.90;;;;;;1542825;75;1456;-53
2023/09/09 09:49:48;;;;;;;;;;;25.10;57.10;;;;;;1548046;75;1178;-53
2023/09/09 09:51:50;;;;;;;;;;;25.10;56.90;;;;;;1544672;75;1618;-53
2023/09/09 09:53:53;;;;;;;;;;;25.10;57.10;;;;;;1547384;75;760;-53
2023/09/09 09:55:55;;;;;;;;;;;25.10;57.00;;;;;;1551117;75;627;-53
2023/09/09 09:58:00;;;;;;;;;;;25.10;57.20;;;;;;1545874;75;1936;-54
2023/09/09 10:00:03;;;;;;;;;;;25.10;57.10;;;;;;1541923;75;1194;-53
2023/09/09 10:02:05;;;;;;;;;;;25.10;57.30;;;;;;1547485;75;1443;-53
2023/09/09 10:04:07;;;;;;;;;;;25.10;57.40;;;;;;1535244;75;629;-55
2023/09/09 10:06:09;;;;;;;;;;;25.10;57.30;;;;;;1548668;75;748;-54
2023/09/09 10:08:19;;;;;;;;;;;25.10;57.50;;;;;;1552632;75;765;-54
2023/09/09 10:10:23;;;;;;;;;;;25.10;57.60;;;;;;1541864;75;1173;-53
2023/09/09 10:12:29;;;;;;;;;;;25.10;57.70;;;;;;1546572;75;692;-54
2023/09/09 10:14:31;;;;;;;;;;;25.00;57.70;;;;;;1542518;75;1014;-54
2023/09/09 10:16:33;;;;;;;;;;;25.00;57.90;;;;;;1538378;75;1952;-55
2023/09/09 10:18:35;;;;;;;;;;;25.10;58.10;;;;;;1547670;75;703;-54
2023/09/09 10:20:37;;;;;;;;;;;25.10;58.30;;;;;;1543438;75;1177;-53
2023/09/09 10:22:41;;;;;;;;;;;25.00;58.30;;;;;;1545944;75;742;-53
2023/09/09 10:24:43;;;;;;;;;;;25.00;58.40;;;;;;1542207;75;1445;-55
2023/09/09 10:26:44;;;;;;;;;;;25.00;58.70;;;;;;1548105;75;581;-54
2023/09/09 10:28:47;;;;;;;;;;;25.00;58.50;;;;;;1552033;75;732;-53
2023/09/09 10:30:49;;;;;;;;;;;25.00;58.80;;;;;;1549451;75;1570;-53
2023/09/09 10:32:51;;;;;;;;;;;25.00;58.90;;;;;;1546528;75;724;-53
2023/09/09 10:34:53;;;;;;;;;;;25.00;58.90;;;;;;1546472;75;763;-54
2023/09/09 10:36:55;;;;;;;;;;;25.00;59.10;;;;;;1546811;75;1935;-54
2023/09/09 10:38:57;;;;;;;;;;;24.90;59.20;;;;;;1548558;75;723;-53
2023/09/09 10:40:58;;;;;;;;;;;25.00;59.20;;;;;;1549432;75;1241;-55
2023/09/09 10:43:00;;;;;;;;;;;25.00;59.20;;;;;;1548391;75;1419;-54
2023/09/09 10:45:20;;;;;;;;;;;25.00;59.20;;;;;;1549016;75;762;-55
2023/09/09 10:47:22;;;;;;;;;;;25.00;59.40;;;;;;1551201;75;1359;-53
2023/09/09 10:49:26;;;;;;;;;;;25.00;59.40;;;;;;1546408;75;1339;-53
2023/09/09 10:51:28;;;;;;;;;;;25.00;59.50;;;;;;1550729;75;1919;-54
2023/09/09 10:53:30;;;;;;;;;;;25.00;59.50;;;;;;1547895;75;1378;-53
2023/09/09 10:55:32;;;;;;;;;;;24.90;59.50;;;;;;1550014;75;1445;-54
2023/09/09 10:57:34;;;;;;;;;;;24.90;59.70;;;;;;1545692;75;1943;-54
2023/09/09 10:59:36;;;;;;;;;;;24.90;60.00;;;;;;1546531;75;1370;-53
2023/09/09 11:01:38;;;;;;;;;;;24.90;60.00;;;;;;1546407;75;1379;-55
2023/09/09 11:03:41;;;;;;;;;;;24.80;60.10;;;;;;1536920;75;1148;-55
2023/09/09 11:05:59;;;;;;;;;;;24.90;60.10;;;;;;1541827;75;1227;-53
2023/09/09 11:08:01;;;;;;;;;;;24.80;60.00;;;;;;1549325;75;1365;-54
2023/09/09 11:10:03;;;;;;;;;;;24.80;60.00;;;;;;1546610;75;1400;-55
2023/09/09 11:12:14;;;;;;;;;;;24.90;60.10;;;;;;1546801;75;1372;-54
2023/09/09 11:14:16;;;;;;;;;;;24.80;60.10;;;;;;1548263;75;1346;-53
2023/09/09 11:16:27;;;;;;;;;;;24.80;60.10;;;;;;1517895;77;1358;-55
2023/09/09 11:18:29;;;;;;;;;;;24.80;60.10;;;;;;1490226;78;1946;-55
2023/09/09 11:20:31;;;;;;;;;;;24.80;60.20;;;;;;1496997;78;1163;-55
2023/09/09 11:22:33;;;;;;;;;;;24.80;60.20;;;;;;1488911;78;1509;-55
2023/09/09 11:24:35;;;;;;;;;;;24.80;60.20;;;;;;1504662;78;1397;-53
2023/09/09 11:26:38;;;;;;;;;;;24.80;60.20;;;;;;1509945;78;1390;-55
2023/09/09 11:28:40;;;;;;;;;;;24.80;60.20;;;;;;1515135;78;1370;-54
2023/09/09 11:30:42;;;;;;;;;;;24.80;60.20;;;;;;1510174;77;1355;-55
2023/09/09 11:32:45;;;;;;;;;;;24.80;60.20;;;;;;1510005;77;1374;-55
2023/09/09 11:34:47;;;;;;;;;;;24.80;60.20;;;;;;1515618;78;1136;-55
2023/09/09 11:36:49;;;;;;;;;;;24.80;60.20;;;;;;1515328;78;1377;-54
2023/09/09 11:38:53;;;;;;;;;;;24.80;60.20;;;;;;1514240;77;1933;-53
2023/09/09 11:40:56;;;;;;;;;;;24.80;60.10;;;;;;1511479;77;1542;-55
2023/09/09 11:42:58;;;;;;;;;;;24.80;60.10;;;;;;1509779;77;1335;-54
2023/09/09 11:45:00;;;;;;;;;;;24.80;60.10;;;;;;1515912;78;1182;-53
2023/09/09 11:47:01;;;;;;;;;;;24.80;60.10;;;;;;1511844;77;1415;-53
2023/09/09 11:49:03;;;;;;;;;;;24.80;60.10;;;;;;1508368;77;1343;-54
2023/09/09 11:51:05;;;;;;;;;;;24.80;60.10;;;;;;1515727;78;1229;-53
2023/09/09 11:53:08;;;;;;;;;;;24.70;59.90;;;;;;1511367;77;1422;-54
2023/09/09 11:55:09;;;;;;;;;;;24.70;60.00;;;;;;1513832;78;1520;-54
2023/09/09 11:57:11;;;;;;;;;;;24.70;60.10;;;;;;1507488;77;1976;-53
2023/09/09 11:59:13;;;;;;;;;;;24.80;60.10;;;;;;1517082;77;1210;-54
2023/09/09 12:01:15;;;;;;;;;;;24.70;60.10;;;;;;1505020;77;1377;-53
2023/09/09 12:03:20;;;;;;;;;;;24.80;60.10;;;;;;1514762;77;689;-53
2023/09/09 12:05:22;;;;;;;;;;;24.70;60.10;;;;;;1515579;78;730;-54
2023/09/09 12:07:25;;;;;;;;;;;24.70;60.00;;;;;;1482935;79;1225;-53